Time;durP1;ratioP1;P1;durP2;ratioP2;P2;SDS_P1;SDS_P2;PMS_P1;PMS_P2;Temp;Humidity;BMP_temperature;BMP_pressure;BME280_temperature;BME280_humidity;BME280_pressure;Samples;Min_cycle;Max_cycle;Signal;HPM_P1;HPM_P2
2021/07/29 00:02:00;;;;;;;;;;;;;;;22.43;31.58;97958.41;5020129;28;815;-79
2021/07/29 00:04:28;;;;;;;;;;;;;;;22.54;31.30;97956.88;5020293;28;1019;-79
2021/07/29 00:06:54;;;;;;;;;;;;;;;22.49;31.27;97948.13;5020669;28;627;-80
2021/07/29 00:09:19;;;;;;;;;;;;;;;22.57;31.26;97933.25;5019807;28;654;-79
2021/07/29 00:11:44;;;;;;;;;;;;;;;22.59;31.05;97936.44;5019993;28;982;-78
2021/07/29 00:14:10;;;;;;;;;;;;;;;22.48;31.30;97932.34;5020024;28;871;-80
2021/07/29 00:16:43;;;;;;;;;;;;;;;22.48;31.46;97932.34;5020397;28;1114;-79
2021/07/29 00:19:10;;;;;;;;;;;;;;;22.56;31.11;97919.53;5020193;28;1903;-79
2021/07/29 00:21:36;;;;;;;;;;;;;;;22.52;31.37;97930.19;5020422;28;674;-80
2021/07/29 00:24:02;;;;;;;;;;;;;;;22.52;31.29;97921.69;5020238;28;611;-79
2021/07/29 00:26:28;;;;;;;;;;;;;;;22.49;31.14;97925.44;5019646;28;761;-79
2021/07/29 00:28:53;;;;;;;;;;;;;;;22.56;30.83;97919.53;5019518;28;673;-80
2021/07/29 00:31:19;;;;;;;;;;;;;;;22.58;31.12;97919.88;5019907;28;922;-80
2021/07/29 00:33:44;;;;;;;;;;;;;;;20.73;30.89;97629.75;5019195;28;980;-79
2021/07/29 00:36:22;;;;;;;;;;;;;;;22.83;30.28;97904.88;5020378;28;951;-79
2021/07/29 00:38:47;;;;;;;;;;;;;;;22.61;30.81;97896.28;5019282;28;1946;-79
2021/07/29 00:41:14;;;;;;;;;;;;;;;22.48;31.15;97881.31;5019285;28;793;-79
2021/07/29 00:43:39;;;;;;;;;;;;;;;22.49;31.16;97880.09;5020039;28;603;-80
2021/07/29 00:46:05;;;;;;;;;;;;;;;22.53;30.90;97875.06;5019212;28;823;-80
2021/07/29 00:48:30;;;;;;;;;;;;;;;22.61;30.41;97870.75;5020710;28;971;-79
2021/07/29 00:50:56;;;;;;;;;;;;;;;22.69;30.27;97859.97;5023000;28;1060;-80
2021/07/29 00:53:21;;;;;;;;;;;;;;;22.60;30.54;97857.84;5024053;28;619;-80
2021/07/29 00:55:47;;;;;;;;;;;;;;;22.49;30.66;97841.19;5023778;28;630;-79
2021/07/29 00:58:12;;;;;;;;;;;;;;;22.43;30.70;97842.19;5022553;28;1898;-79
2021/07/29 01:00:38;;;;;;;;;;;;;;;22.53;30.46;97830.50;5023270;28;911;-79
2021/07/29 01:03:03;;;;;;;;;;;;;;;22.50;30.19;97836.31;5023428;28;877;-80
2021/07/29 01:05:29;;;;;;;;;;;;;;;22.65;29.98;97826.06;5023607;28;714;-79
2021/07/29 01:07:54;;;;;;;;;;;;;;;22.39;30.45;97818.84;5023425;28;638;-79
2021/07/29 01:10:20;;;;;;;;;;;;;;;22.38;30.42;97805.91;5023432;28;615;-79
2021/07/29 01:12:45;;;;;;;;;;;;;;;22.48;30.23;97793.41;5023108;28;879;-79
2021/07/29 01:15:10;;;;;;;;;;;;;;;22.50;30.14;97802.28;5023056;28;844;-79
2021/07/29 01:17:36;;;;;;;;;;;;;;;22.64;29.99;97796.13;5023066;28;994;-79
2021/07/29 01:20:02;;;;;;;;;;;;;;;22.63;30.22;97794.53;5023098;28;1918;-79
2021/07/29 01:22:34;;;;;;;;;;;;;;;22.51;30.18;97784.00;5022644;28;662;-79
2021/07/29 01:24:59;;;;;;;;;;;;;;;22.39;30.22;97777.13;5023143;28;666;-79
2021/07/29 01:27:29;;;;;;;;;;;;;;;22.56;30.02;97789.09;5022829;28;950;-79
2021/07/29 01:29:55;;;;;;;;;;;;;;;22.57;30.09;97819.81;5022923;28;947;-79
2021/07/29 01:32:21;;;;;;;;;;;;;;;22.48;30.05;97821.75;5022843;28;827;-79
2021/07/29 01:34:46;;;;;;;;;;;;;;;22.47;29.83;97820.19;5022903;28;596;-80
2021/07/29 01:37:12;;;;;;;;;;;;;;;22.63;29.55;97832.19;5022971;28;647;-79
2021/07/29 01:39:37;;;;;;;;;;;;;;;22.61;29.44;97876.44;5022488;28;1906;-79
2021/07/29 01:42:03;;;;;;;;;;;;;;;22.51;29.75;97881.19;5022500;28;839;-79
2021/07/29 01:44:28;;;;;;;;;;;;;;;22.47;29.95;97852.16;5022700;28;866;-79
2021/07/29 01:46:54;;;;;;;;;;;;;;;22.49;29.76;97863.88;5022839;28;642;-78
2021/07/29 01:49:22;;;;;;;;;;;;;;;22.61;29.77;97873.59;5022618;28;829;-79
2021/07/29 01:51:48;;;;;;;;;;;;;;;22.54;29.79;97888.03;5022953;28;787;-79
2021/07/29 01:54:14;;;;;;;;;;;;;;;22.49;30.05;97892.22;5022338;28;988;-79
2021/07/29 01:56:40;;;;;;;;;;;;;;;22.62;29.58;97892.19;5022252;28;1027;-79
2021/07/29 01:59:08;;;;;;;;;;;;;;;22.42;30.00;97868.94;5021147;28;1902;-79
2021/07/29 02:01:34;;;;;;;;;;;;;;;22.45;29.87;97853.88;5021765;28;750;-79
2021/07/29 02:03:59;;;;;;;;;;;;;;;22.53;29.37;97855.22;5022349;28;678;-79
2021/07/29 02:06:25;;;;;;;;;;;;;;;22.41;29.74;97868.16;5022494;28;631;-80
2021/07/29 02:08:50;;;;;;;;;;;;;;;22.53;29.54;97858.06;5021516;28;1048;-79
2021/07/29 02:11:16;;;;;;;;;;;;;;;22.54;29.69;97866.13;5021947;28;895;-79
2021/07/29 02:13:41;;;;;;;;;;;;;;;22.51;29.64;97875.53;5022100;28;897;-78
2021/07/29 02:16:10;;;;;;;;;;;;;;;22.53;29.45;97875.06;5022340;28;578;-79
2021/07/29 02:18:35;;;;;;;;;;;;;;;22.55;29.35;97861.25;5020794;28;1914;-79
2021/07/29 02:21:01;;;;;;;;;;;;;;;22.49;29.62;97852.53;5022330;28;630;-79
2021/07/29 02:23:26;;;;;;;;;;;;;;;22.34;29.68;97846.50;5021809;28;966;-79
2021/07/29 02:25:51;;;;;;;;;;;;;;;22.53;29.54;97836.16;5021557;28;869;-77
2021/07/29 02:28:17;;;;;;;;;;;;;;;22.58;29.46;97820.63;5022232;28;1011;-82
2021/07/29 02:30:42;;;;;;;;;;;;;;;22.53;29.34;97818.34;5021971;28;634;-82
2021/07/29 02:33:08;;;;;;;;;;;;;;;22.41;29.55;97816.34;5022337;28;631;-82
2021/07/29 02:35:34;;;;;;;;;;;;;;;22.38;29.76;97786.06;5022277;28;1105;-81
2021/07/29 02:38:00;;;;;;;;;;;;;;;22.33;29.55;97762.72;5021664;28;855;-81
2021/07/29 02:40:25;;;;;;;;;;;;;;;22.41;29.57;97765.31;5021738;28;1918;-82
2021/07/29 02:42:51;;;;;;;;;;;;;;;22.49;29.27;97775.97;5022241;28;702;-82
2021/07/29 02:45:16;;;;;;;;;;;;;;;22.63;29.20;97777.50;5021953;28;1459;-82
2021/07/29 02:47:42;;;;;;;;;;;;;;;22.50;29.44;97785.25;5021731;28;1073;-82
2021/07/29 02:50:07;;;;;;;;;;;;;;;22.39;29.63;97773.50;5021781;28;877;-80
2021/07/29 02:52:33;;;;;;;;;;;;;;;22.43;29.30;97774.16;5021167;28;1274;-81
2021/07/29 02:54:58;;;;;;;;;;;;;;;22.41;29.38;97805.00;5021115;28;979;-82
2021/07/29 02:57:24;;;;;;;;;;;;;;;22.36;29.40;97787.31;5022288;28;688;-82
2021/07/29 02:59:49;;;;;;;;;;;;;;;22.47;29.15;97769.94;5020753;28;1902;-82
2021/07/29 03:02:15;;;;;;;;;;;;;;;22.46;29.20;97774.03;5021991;28;844;-82
2021/07/29 03:04:40;;;;;;;;;;;;;;;22.47;29.28;97764.28;5037072;28;815;-82
2021/07/29 03:07:06;;;;;;;;;;;;;;;22.48;29.15;97765.84;5021131;28;910;-82
2021/07/29 03:09:31;;;;;;;;;;;;;;;22.44;29.21;97764.41;5021104;28;902;-82
2021/07/29 03:11:58;;;;;;;;;;;;;;;22.48;29.28;97770.72;5020359;28;706;-82
2021/07/29 03:14:23;;;;;;;;;;;;;;;22.47;29.29;97774.81;5021184;28;699;-82
2021/07/29 03:16:49;;;;;;;;;;;;;;;22.44;29.37;97781.44;5004738;28;995;-82
2021/07/29 03:19:14;;;;;;;;;;;;;;;22.40;29.16;97763.72;5020814;28;1898;-82
2021/07/29 03:21:39;;;;;;;;;;;;;;;22.38;29.33;97766.22;5021832;28;877;-82
2021/07/29 03:24:05;;;;;;;;;;;;;;;22.40;29.11;97766.56;5020874;28;823;-83
2021/07/29 03:26:30;;;;;;;;;;;;;;;22.52;29.11;97765.75;5021903;28;641;-82
2021/07/29 03:28:56;;;;;;;;;;;;;;;22.60;28.72;97750.09;5020356;28;799;-82
2021/07/29 03:31:21;;;;;;;;;;;;;;;22.50;29.21;97746.34;5022039;28;706;-82
2021/07/29 03:33:47;;;;;;;;;;;;;;;22.41;29.24;97749.09;5020937;28;829;-82
2021/07/29 03:36:12;;;;;;;;;;;;;;;22.41;29.08;97765.31;5020643;28;984;-82
2021/07/29 03:38:38;;;;;;;;;;;;;;;22.41;29.18;97759.66;5020775;28;1898;-82
2021/07/29 03:41:07;;;;;;;;;;;;;;;22.34;29.43;97761.47;5021621;28;809;-83
2021/07/29 03:43:33;;;;;;;;;;;;;;;22.48;29.07;97759.38;5020476;28;698;-82
2021/07/29 03:45:58;;;;;;;;;;;;;;;22.43;29.18;97768.47;5021513;28;1322;-83
2021/07/29 03:48:24;;;;;;;;;;;;;;;22.47;29.35;97764.28;5003845;28;1178;-82
2021/07/29 03:50:49;;;;;;;;;;;;;;;22.46;29.02;97768.38;5004531;28;1285;-82
2021/07/29 03:53:15;;;;;;;;;;;;;;;22.47;29.18;97757.81;5020838;28;895;-82
2021/07/29 03:55:40;;;;;;;;;;;;;;;22.44;29.20;97775.75;5021673;28;860;-82
2021/07/29 03:58:05;;;;;;;;;;;;;;;22.56;29.22;97760.75;5021269;28;642;-82
2021/07/29 04:00:31;;;;;;;;;;;;;;;22.60;29.02;97778.44;5021386;28;1981;-82
2021/07/29 04:02:56;;;;;;;;;;;;;;;22.47;29.06;97774.81;5021426;28;654;-83
2021/07/29 04:05:22;;;;;;;;;;;;;;;22.52;29.34;97766.53;5020635;28;863;-82
2021/07/29 04:07:47;;;;;;;;;;;;;;;22.35;29.51;97774.41;5021302;28;996;-82
2021/07/29 04:10:13;;;;;;;;;;;;;;;22.41;29.49;97776.66;5021330;28;905;-82
2021/07/29 04:12:38;;;;;;;;;;;;;;;22.60;29.00;97778.44;5021189;28;631;-83
2021/07/29 04:15:07;;;;;;;;;;;;;;;22.61;29.17;97771.50;5020030;28;744;-82
2021/07/29 04:17:35;;;;;;;;;;;;;;;22.44;29.26;97775.75;5021083;28;990;-82
2021/07/29 04:20:00;;;;;;;;;;;;;;;22.54;29.38;97774.59;5020597;28;1910;-82
2021/07/29 04:22:29;;;;;;;;;;;;;;;22.45;29.19;97777.34;5020860;28;871;-82
2021/07/29 04:24:55;;;;;;;;;;;;;;;22.50;29.20;97773.91;5023865;28;1036;-82
2021/07/29 04:27:24;;;;;;;;;;;;;;;22.46;29.29;97776.88;5024500;28;658;-82
2021/07/29 04:29:49;;;;;;;;;;;;;;;22.44;29.46;97775.75;5024045;28;962;-82
2021/07/29 04:32:15;;;;;;;;;;;;;;;22.57;29.45;97771.63;5024855;28;666;-82
2021/07/29 04:34:40;;;;;;;;;;;;;;;22.49;29.20;97766.66;5023630;28;871;-82
2021/07/29 04:37:08;;;;;;;;;;;;;;;22.44;29.37;97770.09;5024608;28;870;-82
2021/07/29 04:39:34;;;;;;;;;;;;;;;22.34;29.50;97772.81;5023877;28;1973;-82
2021/07/29 04:41:59;;;;;;;;;;;;;;;22.41;29.46;97770.97;5024073;28;627;-81
2021/07/29 04:44:24;;;;;;;;;;;;;;;22.46;29.57;97784.59;5023764;28;714;-83
2021/07/29 04:46:50;;;;;;;;;;;;;;;22.56;29.15;97769.25;5024851;28;695;-82
2021/07/29 04:49:19;;;;;;;;;;;;;;;22.63;29.19;97775.47;5023213;28;1072;-83
2021/07/29 04:51:44;;;;;;;;;;;;;;;22.56;29.20;97766.41;5007667;28;959;-82
2021/07/29 04:54:10;;;;;;;;;;;;;;;22.56;29.46;97766.41;5023342;28;878;-82
2021/07/29 04:56:35;;;;;;;;;;;;;;;22.57;29.19;97763.13;5023855;28;666;-83
2021/07/29 04:59:01;;;;;;;;;;;;;;;22.58;29.31;97775.25;5024435;28;1906;-82
2021/07/29 05:01:26;;;;;;;;;;;;;;;22.45;29.53;97777.34;5023627;28;655;-82
2021/07/29 05:03:52;;;;;;;;;;;;;;;22.42;29.56;97773.34;5023068;28;989;-82
2021/07/29 05:06:17;;;;;;;;;;;;;;;22.42;29.52;97778.22;5007108;28;927;-82
2021/07/29 05:08:43;;;;;;;;;;;;;;;22.49;29.44;97775.19;5024033;28;974;-82
2021/07/29 05:11:09;;;;;;;;;;;;;;;22.56;29.46;97783.44;5023550;28;804;-82
2021/07/29 05:13:34;;;;;;;;;;;;;;;22.52;29.58;97782.75;5006725;28;873;-82
2021/07/29 05:16:03;;;;;;;;;;;;;;;22.55;29.58;97781.84;5023733;28;875;-82
2021/07/29 05:18:29;;;;;;;;;;;;;;;22.46;29.60;97778.91;5022152;28;1969;-82
2021/07/29 05:20:58;;;;;;;;;;;;;;;22.67;29.46;97788.75;5023857;28;883;-82
2021/07/29 05:23:23;;;;;;;;;;;;;;;22.62;29.57;97778.75;5023517;28;746;-82
2021/07/29 05:25:49;;;;;;;;;;;;;;;22.48;29.67;97777.19;5023378;28;703;-82
2021/07/29 05:28:14;;;;;;;;;;;;;;;22.59;29.46;97782.53;5023783;28;678;-83
2021/07/29 05:30:40;;;;;;;;;;;;;;;22.48;29.62;97782.06;5023619;28;674;-82
2021/07/29 05:33:05;;;;;;;;;;;;;;;22.50;29.76;97790.94;5022463;28;972;-82
2021/07/29 05:35:31;;;;;;;;;;;;;;;22.47;29.66;97786.16;5022473;28;926;-82
2021/07/29 05:37:57;;;;;;;;;;;;;;;22.71;29.57;97790.19;5006370;28;1088;-82
2021/07/29 05:40:22;;;;;;;;;;;;;;;22.58;29.71;97786.59;5023044;28;1910;-82
2021/07/29 05:42:48;;;;;;;;;;;;;;;22.49;29.69;97789.34;5022964;28;651;-82
2021/07/29 05:45:13;;;;;;;;;;;;;;;22.49;29.73;97795.03;5022696;28;627;-82
2021/07/29 05:47:39;;;;;;;;;;;;;;;22.54;29.77;97791.63;5006192;28;858;-82
2021/07/29 05:50:04;;;;;;;;;;;;;;;22.46;29.96;97796.72;5023177;28;826;-82
2021/07/29 05:52:30;;;;;;;;;;;;;;;22.50;29.89;97788.09;5005740;28;877;-82
2021/07/29 05:54:55;;;;;;;;;;;;;;;22.47;29.81;97792.63;5023046;28;575;-82
2021/07/29 05:57:21;;;;;;;;;;;;;;;22.53;30.10;97781.50;5006365;28;1047;-82
2021/07/29 05:59:46;;;;;;;;;;;;;;;22.47;30.35;97783.31;5023149;28;1969;-82
2021/07/29 06:02:12;;;;;;;;;;;;;;;22.56;30.05;97783.44;5022525;28;912;-82
2021/07/29 06:04:40;;;;;;;;;;;;;;;22.51;29.88;97792.50;5022614;28;875;-82
2021/07/29 06:07:06;;;;;;;;;;;;;;;22.53;30.08;97784.34;5023191;28;864;-82
2021/07/29 06:09:31;;;;;;;;;;;;;;;22.55;30.03;97787.53;5005946;28;927;-82
2021/07/29 06:11:57;;;;;;;;;;;;;;;22.63;30.04;97791.69;5023474;28;646;-82
2021/07/29 06:14:23;;;;;;;;;;;;;;;22.53;30.18;97778.66;5006016;28;659;-82
2021/07/29 06:16:48;;;;;;;;;;;;;;;22.41;30.35;97785.94;5022056;28;1060;-82
2021/07/29 06:19:29;;;;;;;;;;;;;;;22.53;29.94;97779.44;5022657;28;1934;-82
2021/07/29 06:21:58;;;;;;;;;;;;;;;22.51;30.34;97786.84;5023059;28;731;-82
2021/07/29 06:24:23;;;;;;;;;;;;;;;22.54;30.04;97774.59;5022257;28;690;-82
2021/07/29 06:26:49;;;;;;;;;;;;;;;22.62;30.04;97782.38;5022059;28;646;-82
2021/07/29 06:29:15;;;;;;;;;;;;;;;22.58;30.05;97786.59;5022614;28;646;-82
2021/07/29 06:31:40;;;;;;;;;;;;;;;22.56;30.24;97786.25;5022578;28;914;-82
2021/07/29 06:34:06;;;;;;;;;;;;;;;22.60;29.98;97784.09;5022228;28;862;-82
2021/07/29 06:36:31;;;;;;;;;;;;;;;22.62;30.08;97778.75;5021800;28;847;-82
2021/07/29 06:38:59;;;;;;;;;;;;;;;22.56;30.04;97778.56;5021448;28;1983;-82
2021/07/29 06:41:25;;;;;;;;;;;;;;;22.67;30.20;97778.19;5022631;28;657;-82
2021/07/29 06:43:50;;;;;;;;;;;;;;;22.54;30.23;97780.28;5021718;28;674;-82
2021/07/29 06:46:15;;;;;;;;;;;;;;;22.50;30.45;97786.06;5022175;28;929;-82
2021/07/29 06:48:41;;;;;;;;;;;;;;;22.66;30.39;97782.28;5021095;28;956;-82
2021/07/29 06:51:07;;;;;;;;;;;;;;;22.67;30.01;97783.84;5021847;28;841;-82
2021/07/29 06:53:32;;;;;;;;;;;;;;;22.73;30.32;97786.91;5022204;28;682;-82
2021/07/29 06:55:59;;;;;;;;;;;;;;;22.64;30.39;97793.28;5021886;28;945;-82
2021/07/29 06:58:25;;;;;;;;;;;;;;;22.58;30.24;97792.25;5020845;28;1910;-82
2021/07/29 07:00:50;;;;;;;;;;;;;;;22.73;30.19;97781.22;5021736;28;1009;-82
2021/07/29 07:03:16;;;;;;;;;;;;;;;22.73;30.15;97798.25;5021586;28;887;-82
2021/07/29 07:05:47;;;;;;;;;;;;;;;22.66;30.36;97793.63;5022017;28;803;-82
2021/07/29 07:08:13;;;;;;;;;;;;;;;22.76;30.10;97794.50;5021808;28;665;-82
2021/07/29 07:10:38;;;;;;;;;;;;;;;22.67;30.25;97795.19;5020366;28;943;-82
2021/07/29 07:13:04;;;;;;;;;;;;;;;22.73;30.15;97801.88;5020901;28;919;-82
2021/07/29 07:15:29;;;;;;;;;;;;;;;22.63;30.34;97794.53;5021158;28;885;-82
2021/07/29 07:17:55;;;;;;;;;;;;;;;22.67;30.48;97792.38;5004022;28;1137;-82
2021/07/29 07:20:20;;;;;;;;;;;;;;;22.73;30.51;97792.56;5020526;28;1906;-82
2021/07/29 07:22:46;;;;;;;;;;;;;;;22.58;30.79;97798.72;5020631;28;765;-82
2021/07/29 07:25:11;;;;;;;;;;;;;;;22.70;30.52;97799.19;5021573;28;663;-82
2021/07/29 07:27:37;;;;;;;;;;;;;;;22.64;30.73;97798.97;5021268;28;694;-82
2021/07/29 07:30:02;;;;;;;;;;;;;;;22.73;30.58;97799.03;5020941;28;1077;-82
2021/07/29 07:32:28;;;;;;;;;;;;;;;22.57;30.76;97796.34;5004296;28;886;-82
2021/07/29 07:34:53;;;;;;;;;;;;;;;22.56;30.69;97797.59;5020442;28;907;-82
2021/07/29 07:37:20;;;;;;;;;;;;;;;22.63;30.77;97794.53;5020869;28;699;-82
2021/07/29 07:39:48;;;;;;;;;;;;;;;22.87;30.12;97798.53;5037048;28;1902;-83
2021/07/29 07:42:14;;;;;;;;;;;;;;;22.74;30.29;97802.66;5004172;28;613;-82
2021/07/29 07:44:39;;;;;;;;;;;;;;;22.76;30.50;97791.66;5021138;28;972;-82
2021/07/29 07:47:05;;;;;;;;;;;;;;;22.76;30.56;97798.13;5020594;28;896;-82
2021/07/29 07:49:30;;;;;;;;;;;;;;;22.72;30.40;97800.28;5020029;28;861;-82
2021/07/29 07:51:56;;;;;;;;;;;;;;;22.62;30.68;97792.94;5021391;28;603;-82
2021/07/29 07:54:21;;;;;;;;;;;;;;;22.55;30.76;97793.19;5020470;28;669;-82
2021/07/29 07:56:47;;;;;;;;;;;;;;;22.75;30.56;97790.09;5021318;28;646;-82
2021/07/29 07:59:12;;;;;;;;;;;;;;;22.66;30.73;97787.16;5019574;28;1883;-82
2021/07/29 08:01:38;;;;;;;;;;;;;;;22.61;30.76;97791.38;5021045;28;913;-83
2021/07/29 08:04:04;;;;;;;;;;;;;;;22.64;30.83;97790.47;5020293;28;912;-82
2021/07/29 08:06:29;;;;;;;;;;;;;;;22.70;30.46;97791.47;5020556;28;650;-82
2021/07/29 08:08:55;;;;;;;;;;;;;;;22.65;30.69;97792.03;5020035;28;678;-82
2021/07/29 08:11:20;;;;;;;;;;;;;;;22.74;30.46;97794.97;5020240;28;903;-82
2021/07/29 08:13:46;;;;;;;;;;;;;;;22.67;30.86;97800.88;5020349;28;1039;-82
2021/07/29 08:16:11;;;;;;;;;;;;;;;22.75;30.69;97801.44;5019619;28;886;-82
2021/07/29 08:18:37;;;;;;;;;;;;;;;22.75;30.45;97802.22;5019754;28;1903;-82
2021/07/29 08:21:07;;;;;;;;;;;;;;;22.66;31.05;97793.63;5021070;28;627;-82
2021/07/29 08:23:32;;;;;;;;;;;;;;;22.72;30.66;97794.63;5019406;28;966;-83
2021/07/29 08:25:57;;;;;;;;;;;;;;;22.69;30.77;97792.72;5020190;28;777;-82
2021/07/29 08:28:23;;;;;;;;;;;;;;;22.73;30.80;97790.53;5019517;28;846;-82
2021/07/29 08:30:48;;;;;;;;;;;;;;;22.66;30.78;97787.94;5020122;28;1000;-82
2021/07/29 08:33:14;;;;;;;;;;;;;;;22.76;30.89;97795.28;5019853;28;938;-81
2021/07/29 08:35:39;;;;;;;;;;;;;;;22.80;30.77;97793.13;5004098;28;1294;-81
2021/07/29 08:38:05;;;;;;;;;;;;;;;22.68;30.81;97793.94;5019625;28;666;-82
2021/07/29 08:40:30;;;;;;;;;;;;;;;22.67;31.03;97789.53;5020658;28;1910;-82
2021/07/29 08:42:56;;;;;;;;;;;;;;;22.74;30.56;97794.97;5020177;28;921;-82
2021/07/29 08:45:21;;;;;;;;;;;;;;;22.82;30.67;97801.97;5019517;28;931;-82
2021/07/29 08:47:47;;;;;;;;;;;;;;;22.83;30.85;97795.03;5019634;28;967;-82
2021/07/29 08:50:12;;;;;;;;;;;;;;;22.77;30.75;97790.41;5020274;28;640;-82
2021/07/29 08:52:38;;;;;;;;;;;;;;;22.71;30.88;97790.19;5020540;28;724;-82
2021/07/29 08:55:04;;;;;;;;;;;;;;;22.79;31.03;97797.19;5019038;28;768;-82
2021/07/29 08:57:30;;;;;;;;;;;;;;;22.75;30.77;97790.88;5020392;28;866;-82
2021/07/29 08:59:56;;;;;;;;;;;;;;;22.79;30.95;97796.41;5019238;28;1898;-82
2021/07/29 09:02:22;;;;;;;;;;;;;;;22.74;30.72;97803.47;5019977;28;900;-82
2021/07/29 09:05:06;;;;;;;;;;;;;;;22.79;30.81;97791.53;5020239;28;631;-82
2021/07/29 09:07:33;;;;;;;;;;;;;;;22.72;31.08;97797.44;5019382;28;826;-82
2021/07/29 09:09:58;;;;;;;;;;;;;;;22.76;31.11;97798.13;5020985;28;631;-82
2021/07/29 09:12:24;;;;;;;;;;;;;;;22.88;30.91;97800.16;5023158;28;925;-82
2021/07/29 09:14:50;;;;;;;;;;;;;;;22.85;31.00;97792.56;5055123;28;913;-82
2021/07/29 09:17:16;;;;;;;;;;;;;;;22.77;31.01;97799.72;5023062;28;967;-82
2021/07/29 09:19:45;;;;;;;;;;;;;;;22.79;30.92;97791.53;5007007;28;1906;-82
2021/07/29 09:22:15;;;;;;;;;;;;;;;22.93;30.84;97795.16;5022550;28;896;-82
2021/07/29 09:25:20;;;;;;;;;;;;;;;22.94;30.55;97796.75;5023366;28;651;-82
2021/07/29 09:27:49;;;;;;;;;;;;;;;22.82;30.80;97801.19;4963575;29;1080;-82
2021/07/29 09:30:15;;;;;;;;;;;;;;;22.75;31.21;97790.88;4947169;29;906;-82
2021/07/29 09:32:59;;;;;;;;;;;;;;;22.81;30.97;97789.03;4993624;28;860;-82
2021/07/29 09:35:45;;;;;;;;;;;;;;;22.85;31.04;97794.59;5023533;28;659;-83
2021/07/29 09:38:10;;;;;;;;;;;;;;;22.91;30.91;97787.13;5023061;28;1118;-83
2021/07/29 09:40:42;;;;;;;;;;;;;;;22.91;30.67;97792.00;5023650;28;1902;-82
2021/07/29 09:43:18;;;;;;;;;;;;;;;22.90;30.78;97793.22;5022842;28;859;-82
2021/07/29 09:45:48;;;;;;;;;;;;;;;22.83;31.27;97780.84;5022006;28;923;-82
2021/07/29 09:48:14;;;;;;;;;;;;;;;22.76;31.29;97786.00;5022397;28;689;-82
2021/07/29 09:50:39;;;;;;;;;;;;;;;22.93;30.80;97786.66;5021883;28;807;-83
2021/07/29 09:53:05;;;;;;;;;;;;;;;22.88;31.20;97794.47;5021911;28;791;-82
2021/07/29 09:55:30;;;;;;;;;;;;;;;22.96;30.98;97794.25;5023515;28;623;-82
2021/07/29 09:57:59;;;;;;;;;;;;;;;22.88;31.23;97785.97;5021862;28;874;-82
2021/07/29 10:00:25;;;;;;;;;;;;;;;22.84;31.22;97793.78;5021176;28;1898;-82
2021/07/29 10:02:50;;;;;;;;;;;;;;;22.74;31.50;97786.47;5022096;28;1094;-82
2021/07/29 10:05:20;;;;;;;;;;;;;;;22.80;31.49;97781.78;5022975;28;650;-82
2021/07/29 10:07:48;;;;;;;;;;;;;;;22.88;31.23;97788.81;5022609;28;916;-81
2021/07/29 10:10:19;;;;;;;;;;;;;;;22.76;31.32;97781.13;5022961;28;663;-86
2021/07/29 10:12:45;;;;;;;;;;;;;;;22.73;31.54;97775.56;5021997;28;1091;-83
2021/07/29 10:15:11;;;;;;;;;;;;;;;22.75;31.51;97779.53;5006216;28;1112;-83
2021/07/29 10:17:37;;;;;;;;;;;;;;;22.66;31.40;97770.94;5022875;28;1077;-83
2021/07/29 10:20:11;;;;;;;;;;;;;;;22.79;31.14;97768.84;5023777;28;1981;-83
2021/07/29 10:22:37;;;;;;;;;;;;;;;22.88;31.36;97766.13;5023626;28;746;-84
2021/07/29 10:25:03;;;;;;;;;;;;;;;22.93;31.17;97761.13;5055834;28;857;-82
2021/07/29 10:27:29;;;;;;;;;;;;;;;22.75;31.62;97762.50;5022217;28;993;-83
2021/07/29 10:30:20;;;;;;;;;;;;;;;22.72;31.44;97751.28;5023068;28;842;-83
2021/07/29 10:32:50;;;;;;;;;;;;;;;22.79;31.20;97751.81;5023174;28;973;-84
2021/07/29 10:35:30;;;;;;;;;;;;;;;22.81;31.34;97749.31;5022596;28;643;-83
2021/07/29 10:37:56;;;;;;;;;;;;;;;22.84;31.41;97747.59;5023304;28;663;-83
2021/07/29 10:40:31;;;;;;;;;;;;;;;22.87;31.42;97738.97;5006587;28;1963;-83
2021/07/29 10:42:56;;;;;;;;;;;;;;;22.92;31.18;97742.50;5022258;28;831;-83
2021/07/29 10:45:41;;;;;;;;;;;;;;;22.88;31.14;97749.09;5022366;28;957;-83
2021/07/29 10:48:06;;;;;;;;;;;;;;;22.85;31.42;97750.00;5022526;28;1386;-83
2021/07/29 10:50:32;;;;;;;;;;;;;;;22.87;31.20;97758.84;5022739;28;852;-83
2021/07/29 10:52:57;;;;;;;;;;;;;;;22.72;31.53;97757.75;5023115;28;599;-83
2021/07/29 10:55:23;;;;;;;;;;;;;;;22.73;31.49;97770.66;5039162;28;770;-83
2021/07/29 10:57:58;;;;;;;;;;;;;;;22.85;31.52;97767.03;5022280;28;968;-83
2021/07/29 11:00:24;;;;;;;;;;;;;;;23.01;30.95;97759.63;5004816;28;1898;-83
2021/07/29 11:02:52;;;;;;;;;;;;;;;22.96;31.22;97760.19;5022647;28;1008;-84
2021/07/29 11:05:25;;;;;;;;;;;;;;;22.98;31.16;97758.47;5023432;28;675;-84
2021/07/29 11:07:51;;;;;;;;;;;;;;;22.91;31.31;97752.28;5023368;28;691;-84
2021/07/29 11:10:20;;;;;;;;;;;;;;;23.03;31.00;97754.25;5023413;28;639;-84
2021/07/29 11:12:45;;;;;;;;;;;;;;;23.11;31.01;97758.44;5022922;28;949;-84
2021/07/29 11:15:11;;;;;;;;;;;;;;;23.04;30.81;97753.00;5006797;28;1143;-84
2021/07/29 11:17:37;;;;;;;;;;;;;;;23.06;30.81;97748.47;5040261;28;1488;-84
2021/07/29 11:20:03;;;;;;;;;;;;;;;23.04;31.17;97753.00;5022620;28;1906;-84
2021/07/29 11:22:28;;;;;;;;;;;;;;;23.06;30.75;97747.69;4991053;28;1171;-84
2021/07/29 11:24:54;;;;;;;;;;;;;;;22.85;31.09;97743.53;5023042;28;860;-83
2021/07/29 11:27:30;;;;;;;;;;;;;;;22.99;31.17;97747.91;5023887;28;985;-84
2021/07/29 11:29:56;;;;;;;;;;;;;;;22.84;31.42;97751.22;5022514;28;895;-84
2021/07/29 11:32:22;;;;;;;;;;;;;;;22.92;31.11;97742.50;5022320;28;834;-84
2021/07/29 11:34:56;;;;;;;;;;;;;;;22.92;31.38;97743.28;5022123;28;684;-84
2021/07/29 11:37:32;;;;;;;;;;;;;;;22.88;31.38;97737.75;5007062;28;1248;-84
2021/07/29 11:39:57;;;;;;;;;;;;;;;22.99;31.23;97743.03;5022527;28;1906;-84
2021/07/29 11:42:52;;;;;;;;;;;;;;;22.98;31.21;97735.00;5023142;28;939;-84
2021/07/29 11:45:22;;;;;;;;;;;;;;;22.85;31.29;97737.88;5005847;28;1147;-84
2021/07/29 11:47:47;;;;;;;;;;;;;;;22.81;31.48;97737.97;5023347;28;654;-85
2021/07/29 11:50:13;;;;;;;;;;;;;;;22.92;31.09;97725.47;5022625;28;754;-84
2021/07/29 11:52:51;;;;;;;;;;;;;;;22.81;31.54;97726.63;5023033;28;707;-84
2021/07/29 11:55:17;;;;;;;;;;;;;;;22.88;31.06;97732.06;5022250;28;733;-84
2021/07/29 11:57:42;;;;;;;;;;;;;;;22.90;31.32;97725.13;5022725;28;920;-84
2021/07/29 12:00:08;;;;;;;;;;;;;;;22.94;31.12;97728.63;5022085;28;1954;-84
2021/07/29 12:02:37;;;;;;;;;;;;;;;22.97;31.21;97716.38;5023036;28;940;-85
2021/07/29 12:05:03;;;;;;;;;;;;;;;23.09;30.86;97718.34;5023001;28;674;-84
2021/07/29 12:07:28;;;;;;;;;;;;;;;23.01;31.21;97714.22;5022937;28;635;-84
2021/07/29 12:09:54;;;;;;;;;;;;;;;23.02;31.04;97712.97;5022596;28;929;-84
2021/07/29 12:12:19;;;;;;;;;;;;;;;22.91;31.14;97723.91;5022551;28;906;-85
2021/07/29 12:14:45;;;;;;;;;;;;;;;22.90;31.07;97716.63;5021987;28;836;-84
2021/07/29 12:17:20;;;;;;;;;;;;;;;22.97;31.09;97719.22;5022721;28;1101;-84
2021/07/29 12:19:59;;;;;;;;;;;;;;;22.74;31.52;97709.06;4989785;28;1973;-84
2021/07/29 12:22:28;;;;;;;;;;;;;;;23.04;30.84;97707.59;5022020;28;781;-84
2021/07/29 12:24:55;;;;;;;;;;;;;;;22.91;31.11;97696.31;5021584;28;772;-84
2021/07/29 12:27:20;;;;;;;;;;;;;;;22.93;31.10;97704.38;5022534;28;978;-84
2021/07/29 12:29:46;;;;;;;;;;;;;;;22.88;31.23;97703.69;5021465;28;850;-85
2021/07/29 12:32:24;;;;;;;;;;;;;;;22.90;31.17;97703.25;5005984;28;865;-84
2021/07/29 12:34:50;;;;;;;;;;;;;;;22.84;31.46;97700.16;5021311;28;854;-84
2021/07/29 12:37:35;;;;;;;;;;;;;;;22.86;31.27;97696.88;5038729;28;1282;-85
2021/07/29 12:40:01;;;;;;;;;;;;;;;22.78;31.44;97698.38;5021285;28;1985;-84
2021/07/29 12:42:31;;;;;;;;;;;;;;;22.88;31.07;97698.03;5022168;28;889;-84
2021/07/29 12:44:57;;;;;;;;;;;;;;;22.91;31.24;97689.88;5022824;28;938;-84
2021/07/29 12:47:23;;;;;;;;;;;;;;;22.98;31.07;97683.91;5041947;28;1041;-84
2021/07/29 12:49:49;;;;;;;;;;;;;;;23.02;30.86;97684.59;5041836;28;877;-83
2021/07/29 12:52:24;;;;;;;;;;;;;;;22.98;31.06;97683.91;5009802;28;1257;-84
2021/07/29 12:54:56;;;;;;;;;;;;;;;22.96;31.04;97680.75;5024956;28;822;-84
2021/07/29 12:57:21;;;;;;;;;;;;;;;22.86;31.22;97677.81;5025096;28;935;-84
2021/07/29 12:59:47;;;;;;;;;;;;;;;22.95;30.88;97674.28;5008360;28;1907;-84
2021/07/29 13:02:12;;;;;;;;;;;;;;;22.90;31.13;97671.22;5025788;28;910;-84
2021/07/29 13:04:38;;;;;;;;;;;;;;;22.99;30.97;97665.63;5025328;28;599;-84